首页
METAR-TAF:

METAR-TAF

机场 :

香槟沙隆, 法国

纬度: 48-46-34N, 经度: 004-11-04E, 海拔: 179米

当前天气观测

该预报发布于35分钟前的19:00 UTC
风速8节,风向南转西南
温度 3°C
湿度 93%
气压 1030 hPa
能见度10公里或以上
1500米以下无云,无积雨云

METAR: LFOK 211900Z AUTO 20008KT CAVOK 03/02 Q1030 NOSIG

时间: 20:35 (19:35 UTC)

预报

该预报发布于2小时和35分钟前的17:00 UTC
预报有效从21日的 18点(UTC)到 22日的 18点(UTC)
风速13节,风向西南
能见度10公里或以上
1500米以下无云,无积雨云
成为
从 22日的 08点(UTC)到 22日的 10点(UTC)
风速17节,风向西南,有时为27节阵风
成为
从 22日的 15点(UTC)到 22日的 17点(UTC)
风速13节,风向西南

TAF: LFOK 211700Z 2118/2218 23013KT CAVOK BECMG 2208/2210 23017G27KT BECMG 2215/2217 23013KT

超过4000个机场的气象观测和天气预报(METAR&TAF报告)。

可查询的气象台以黄色和红色小点在地图上表示。

将鼠标移到小点上方,可查看气象台名称。

然后点击查看天气观测和预报。

如需切换地图:点击带黑十字的绿色按钮放大地图;点击带横线的绿色按钮缩小地图;或者点击绿色箭头查看邻近地区的地图。


METAR-TAF: